createdAt,value
2018-04-29T00:00:21.629Z,6.70
2018-04-29T00:00:54.895Z,6.43
2018-04-29T00:01:28.182Z,6.50
2018-04-29T00:02:01.444Z,7.15
2018-04-29T00:02:34.703Z,6.68
2018-04-29T00:03:07.963Z,7.62
2018-04-29T00:03:41.228Z,7.32
2018-04-29T00:04:14.521Z,8.23
2018-04-29T00:04:47.802Z,7.90
2018-04-29T00:05:21.053Z,7.65
2018-04-29T00:05:54.333Z,7.70
2018-04-29T00:06:27.589Z,7.47
2018-04-29T00:07:00.855Z,7.30
2018-04-29T00:07:35.458Z,7.53
2018-04-29T00:08:08.776Z,7.53
2018-04-29T00:08:42.265Z,7.00
2018-04-29T00:09:15.541Z,7.70
2018-04-29T00:09:48.836Z,6.93
2018-04-29T00:10:22.113Z,6.68
2018-04-29T00:10:55.380Z,7.18
2018-04-29T00:11:28.660Z,7.18
2018-04-29T00:12:01.912Z,6.78
2018-04-29T00:12:35.957Z,7.32
2018-04-29T00:13:09.228Z,7.07
2018-04-29T00:13:42.512Z,7.30
2018-04-29T00:14:16.539Z,6.50
2018-04-29T00:14:49.805Z,6.43
2018-04-29T00:15:23.865Z,6.43
2018-04-29T00:15:57.130Z,6.37
2018-04-29T00:16:31.161Z,6.18
2018-04-29T00:17:04.432Z,5.93
2018-04-29T00:17:37.701Z,5.40
2018-04-29T00:18:10.947Z,5.32
2018-04-29T00:18:44.996Z,5.65
2018-04-29T00:19:19.041Z,5.65
2018-04-29T00:19:52.298Z,5.78
2018-04-29T00:20:26.338Z,5.80
2018-04-29T00:21:00.370Z,5.37
2018-04-29T00:21:33.660Z,5.60
2018-04-29T00:22:06.949Z,5.32
2018-04-29T00:22:40.288Z,5.50
2018-04-29T00:23:13.553Z,5.12
2018-04-29T00:23:46.809Z,5.40
2018-04-29T00:24:20.085Z,5.43
2018-04-29T00:24:53.373Z,5.68
2018-04-29T00:25:26.644Z,5.57
2018-04-29T00:25:59.935Z,6.25
2018-04-29T00:26:33.237Z,6.10
2018-04-29T00:27:07.261Z,5.57
2018-04-29T00:27:40.523Z,5.93
2018-04-29T00:28:13.797Z,6.10
2018-04-29T00:28:47.129Z,6.55
2018-04-29T00:29:20.401Z,6.80
2018-04-29T00:29:53.689Z,6.87
2018-04-29T00:30:26.949Z,6.68
2018-04-29T00:31:00.208Z,6.72
2018-04-29T00:31:33.469Z,6.80
2018-04-29T00:32:06.726Z,6.55
2018-04-29T00:32:39.993Z,6.75
2018-04-29T00:33:13.273Z,6.10
2018-04-29T00:33:46.531Z,6.70
2018-04-29T00:34:19.796Z,6.60
2018-04-29T00:34:53.084Z,5.60
2018-04-29T00:35:26.335Z,6.22
2018-04-29T00:36:00.390Z,5.97
2018-04-29T00:36:33.662Z,6.00
2018-04-29T00:37:06.914Z,5.35
2018-04-29T00:37:40.190Z,5.60
2018-04-29T00:38:14.204Z,5.93
2018-04-29T00:38:47.476Z,5.47
2018-04-29T00:39:20.739Z,5.53
2018-04-29T00:39:54.017Z,5.80
2018-04-29T00:40:27.271Z,6.78
2018-04-29T00:41:00.541Z,5.80
2018-04-29T00:41:33.857Z,5.87
2018-04-29T00:42:07.134Z,6.47
2018-04-29T00:42:40.412Z,6.03
2018-04-29T00:43:14.436Z,6.30
2018-04-29T00:43:47.707Z,5.82
2018-04-29T00:44:20.993Z,5.82
2018-04-29T00:44:54.274Z,6.12
2018-04-29T00:45:27.565Z,5.95
2018-04-29T00:46:00.828Z,5.85
2018-04-29T00:46:34.093Z,6.18
2018-04-29T00:47:08.121Z,5.90
2018-04-29T00:47:41.622Z,6.25
2018-04-29T00:48:14.910Z,5.70
2018-04-29T00:48:48.188Z,5.82
2018-04-29T00:49:22.372Z,5.82
2018-04-29T00:49:55.643Z,5.80
2018-04-29T00:50:28.911Z,5.97
2018-04-29T00:51:02.171Z,6.10
2018-04-29T00:51:48.204Z,6.30
2018-04-29T00:52:21.481Z,5.70
2018-04-29T00:52:54.950Z,5.32
2018-04-29T00:53:28.227Z,5.57
2018-04-29T00:54:01.485Z,5.72
2018-04-29T00:54:34.758Z,5.43
2018-04-29T00:55:08.813Z,4.95
2018-04-29T00:55:42.087Z,5.15
2018-04-29T00:56:15.353Z,4.62
2018-04-29T00:56:48.637Z,4.62
2018-04-29T00:57:21.902Z,4.32
2018-04-29T00:57:55.170Z,4.32
2018-04-29T00:58:28.437Z,4.32
2018-04-29T00:59:02.472Z,4.37
2018-04-29T00:59:35.728Z,4.28
2018-04-29T01:00:09.017Z,4.12
2018-04-29T01:00:42.277Z,3.80
2018-04-29T01:01:16.320Z,4.03
2018-04-29T01:01:49.581Z,3.97
2018-04-29T01:02:22.860Z,4.40
2018-04-29T01:02:56.124Z,4.75
2018-04-29T01:03:29.399Z,3.87
2018-04-29T01:04:02.687Z,3.95
2018-04-29T01:04:35.951Z,3.75
2018-04-29T01:05:09.996Z,4.25
2018-04-29T01:05:43.261Z,4.22
2018-04-29T01:06:16.527Z,4.45
2018-04-29T01:06:49.797Z,4.40
2018-04-29T01:07:23.829Z,4.30
2018-04-29T01:07:57.092Z,4.37
2018-04-29T01:08:30.373Z,4.03
2018-04-29T01:09:03.661Z,3.85
2018-04-29T01:09:37.740Z,3.78
2018-04-29T01:10:11.049Z,3.80
2018-04-29T01:10:44.325Z,4.12
2018-04-29T01:11:17.598Z,4.12
2018-04-29T01:11:50.843Z,3.92
2018-04-29T01:12:24.900Z,3.70
2018-04-29T01:12:58.172Z,3.72
2018-04-29T01:13:31.437Z,3.67
2018-04-29T01:14:04.725Z,3.50
2018-04-29T01:14:37.992Z,3.90
2018-04-29T01:15:11.267Z,3.67
2018-04-29T01:15:44.552Z,3.55
2018-04-29T01:16:17.799Z,3.60
2018-04-29T01:16:51.070Z,3.45
2018-04-29T01:17:24.340Z,4.07
2018-04-29T01:17:57.609Z,3.72
2018-04-29T01:18:30.872Z,3.65
2018-04-29T01:19:04.137Z,3.53
2018-04-29T01:19:37.396Z,3.70
2018-04-29T01:20:10.652Z,3.83
2018-04-29T01:20:43.944Z,3.90
2018-04-29T01:21:17.974Z,3.58
2018-04-29T01:21:51.237Z,3.95
2018-04-29T01:22:25.275Z,3.90
2018-04-29T01:22:58.569Z,3.65
2018-04-29T01:23:31.831Z,3.40
2018-04-29T01:24:05.128Z,3.62
2018-04-29T01:24:38.408Z,3.30
2018-04-29T01:25:11.688Z,4.10
2018-04-29T01:25:44.973Z,3.25
2018-04-29T01:26:18.249Z,4.10
2018-04-29T01:26:51.504Z,3.37
2018-04-29T01:27:24.765Z,3.42
2018-04-29T01:27:58.029Z,3.60
2018-04-29T01:28:31.288Z,3.80
2018-04-29T01:29:05.348Z,3.87
2018-04-29T01:29:38.619Z,3.55
2018-04-29T01:30:12.213Z,3.90
2018-04-29T01:30:45.506Z,4.07
2018-04-29T01:31:18.767Z,3.60
2018-04-29T01:31:52.018Z,3.58
2018-04-29T01:32:25.285Z,3.25
2018-04-29T01:32:58.551Z,2.80
2018-04-29T01:33:32.588Z,3.37
2018-04-29T01:34:05.845Z,3.67
2018-04-29T01:34:39.092Z,3.42
2018-04-29T01:35:12.360Z,3.30
2018-04-29T01:35:45.644Z,3.08
2018-04-29T01:36:18.917Z,2.80
2018-04-29T01:36:52.945Z,2.97
2018-04-29T01:37:26.213Z,3.53
2018-04-29T01:37:59.477Z,2.50
2018-04-29T01:38:32.746Z,2.83
2018-04-29T01:39:06.000Z,2.78
2018-04-29T01:39:39.270Z,2.85
2018-04-29T01:40:12.516Z,2.62
2018-04-29T01:40:45.804Z,2.78
2018-04-29T01:41:19.068Z,3.00
2018-04-29T01:41:52.342Z,2.72
2018-04-29T01:42:25.616Z,2.47
2018-04-29T01:42:58.877Z,2.90
2018-04-29T01:43:32.156Z,2.55
2018-04-29T01:44:05.412Z,2.58
2018-04-29T01:44:38.680Z,2.65
2018-04-29T01:45:11.944Z,2.75
2018-04-29T01:45:45.220Z,2.42
2018-04-29T01:46:18.508Z,2.30
2018-04-29T01:46:52.529Z,2.72
2018-04-29T01:47:25.793Z,2.50
2018-04-29T01:47:59.074Z,2.55
2018-04-29T01:48:33.124Z,2.37
2018-04-29T01:49:06.392Z,2.17
2018-04-29T01:49:39.656Z,1.98
2018-04-29T01:50:12.908Z,2.85
2018-04-29T01:50:46.731Z,2.70
2018-04-29T01:51:20.054Z,2.28
2018-04-29T01:51:53.314Z,2.40
2018-04-29T01:52:27.351Z,2.12
2018-04-29T01:53:00.613Z,2.90
2018-04-29T01:53:33.880Z,2.35
2018-04-29T01:54:07.141Z,2.05
2018-04-29T01:54:40.408Z,2.12
2018-04-29T01:55:13.680Z,1.85
2018-04-29T01:55:46.948Z,2.00
2018-04-29T01:56:20.220Z,2.12
2018-04-29T01:56:54.278Z,2.20
2018-04-29T01:57:27.532Z,1.75
2018-04-29T01:58:00.804Z,2.10
2018-04-29T01:58:34.060Z,2.20
2018-04-29T01:59:07.328Z,2.42
2018-04-29T01:59:41.361Z,1.80
2018-04-29T02:00:14.621Z,1.90
2018-04-29T02:00:47.907Z,2.20
2018-04-29T02:01:21.948Z,2.30
2018-04-29T02:01:55.214Z,1.87
2018-04-29T02:02:28.464Z,2.00
2018-04-29T02:03:01.728Z,2.10
2018-04-29T02:03:34.995Z,1.83
2018-04-29T02:04:08.265Z,1.92
2018-04-29T02:04:41.555Z,2.17
2018-04-29T02:05:14.803Z,2.08
2018-04-29T02:05:48.075Z,2.20
2018-04-29T02:06:21.396Z,2.25
2018-04-29T02:06:54.665Z,2.30
2018-04-29T02:07:27.937Z,2.15
2018-04-29T02:08:01.208Z,2.22
2018-04-29T02:08:35.257Z,2.25
2018-04-29T02:09:09.279Z,1.95
2018-04-29T02:09:42.549Z,2.30
2018-04-29T02:10:15.817Z,2.42
2018-04-29T02:10:49.851Z,2.58
2018-04-29T02:11:23.150Z,2.25
2018-04-29T02:11:56.417Z,2.28
2018-04-29T02:12:29.774Z,2.17
2018-04-29T02:13:02.968Z,2.30
2018-04-29T02:13:36.232Z,2.50
2018-04-29T02:14:09.508Z,2.50
2018-04-29T02:14:42.772Z,1.98
2018-04-29T02:15:16.027Z,2.40
2018-04-29T02:15:49.308Z,2.47
2018-04-29T02:16:22.584Z,2.22
2018-04-29T02:16:56.624Z,2.10
2018-04-29T02:17:29.899Z,2.30
2018-04-29T02:18:03.165Z,2.10
2018-04-29T02:18:37.196Z,2.62
2018-04-29T02:19:10.485Z,2.12
2018-04-29T02:19:43.735Z,2.45
2018-04-29T02:20:17.012Z,2.20
2018-04-29T02:20:51.060Z,2.37
2018-04-29T02:21:24.355Z,2.67
2018-04-29T02:21:57.645Z,2.40
2018-04-29T02:22:30.921Z,2.30
2018-04-29T02:23:04.194Z,1.92
2018-04-29T02:23:37.469Z,2.65
2018-04-29T02:24:10.738Z,2.53
2018-04-29T02:24:43.992Z,2.30
2018-04-29T02:25:17.248Z,2.30
2018-04-29T02:25:50.512Z,2.62
2018-04-29T02:26:23.771Z,2.20
2018-04-29T02:26:57.041Z,2.50
2018-04-29T02:27:31.081Z,2.50
2018-04-29T02:28:05.340Z,2.40
2018-04-29T02:28:38.637Z,2.65
2018-04-29T02:29:12.222Z,2.37
2018-04-29T02:29:45.469Z,2.50
2018-04-29T02:30:18.749Z,2.62
2018-04-29T02:30:52.027Z,2.40
2018-04-29T02:31:25.304Z,2.12
2018-04-29T02:31:58.572Z,2.10
2018-04-29T02:32:31.922Z,2.20
2018-04-29T02:33:05.372Z,2.08
2018-04-29T02:33:38.650Z,2.37
2018-04-29T02:34:11.912Z,2.47
2018-04-29T02:34:45.945Z,2.25
2018-04-29T02:35:19.228Z,2.12
2018-04-29T02:35:52.527Z,2.70
2018-04-29T02:36:25.792Z,2.12
2018-04-29T02:36:59.061Z,2.10
2018-04-29T02:37:32.317Z,2.50
2018-04-29T02:38:05.606Z,2.17
2018-04-29T02:38:38.873Z,2.30
2018-04-29T02:39:12.132Z,2.30
2018-04-29T02:39:45.417Z,2.65
2018-04-29T02:40:18.677Z,2.22
2018-04-29T02:40:52.700Z,2.35
2018-04-29T02:41:25.955Z,2.50
2018-04-29T02:41:59.249Z,2.30
2018-04-29T02:42:32.505Z,2.08
2018-04-29T02:43:06.552Z,2.45
2018-04-29T02:43:39.802Z,1.92
2018-04-29T02:44:13.826Z,2.58
2018-04-29T02:44:47.330Z,2.20
2018-04-29T02:45:20.592Z,2.35
2018-04-29T02:45:53.860Z,2.50
2018-04-29T02:46:27.121Z,2.28
2018-04-29T02:47:01.157Z,2.53
2018-04-29T02:47:34.422Z,2.20
2018-04-29T02:48:07.686Z,2.53
2018-04-29T02:48:40.952Z,2.40
2018-04-29T02:49:14.223Z,2.55
2018-04-29T02:49:48.265Z,2.45
2018-04-29T02:50:21.533Z,2.17
2018-04-29T02:50:54.788Z,2.70
2018-04-29T02:51:28.813Z,2.78
2018-04-29T02:52:02.082Z,2.72
2018-04-29T02:52:35.352Z,2.65
2018-04-29T02:53:09.721Z,2.67
2018-04-29T02:53:42.938Z,2.30
2018-04-29T02:54:16.202Z,2.30
2018-04-29T02:54:50.240Z,2.37
2018-04-29T02:55:23.516Z,2.50
2018-04-29T02:55:56.760Z,2.60
2018-04-29T02:56:30.787Z,2.53
2018-04-29T02:57:04.081Z,2.80
2018-04-29T02:57:37.345Z,2.30
2018-04-29T02:58:11.384Z,2.75
2018-04-29T02:58:44.680Z,2.40
2018-04-29T02:59:17.936Z,2.90
2018-04-29T02:59:51.192Z,2.30
2018-04-29T03:00:24.487Z,2.47
2018-04-29T03:00:58.525Z,2.25
2018-04-29T03:01:31.796Z,2.70
2018-04-29T03:02:05.081Z,2.30
2018-04-29T03:02:38.362Z,2.28
2018-04-29T03:03:11.616Z,2.60
2018-04-29T03:03:44.879Z,2.60
2018-04-29T03:04:18.137Z,3.00
2018-04-29T03:04:51.400Z,2.70
2018-04-29T03:05:25.433Z,2.60
2018-04-29T03:05:58.693Z,2.40
2018-04-29T03:06:31.984Z,2.87
2018-04-29T03:07:05.241Z,2.92
2018-04-29T03:07:38.523Z,2.15
2018-04-29T03:08:12.544Z,2.60
2018-04-29T03:08:45.813Z,2.60
2018-04-29T03:09:19.082Z,2.60
2018-04-29T03:09:53.108Z,2.45
2018-04-29T03:10:26.373Z,3.03
2018-04-29T03:10:59.638Z,2.47
2018-04-29T03:11:33.682Z,2.83
2018-04-29T03:12:06.944Z,2.58
2018-04-29T03:12:40.222Z,2.90
2018-04-29T03:13:13.494Z,3.00
2018-04-29T03:13:46.771Z,2.65
2018-04-29T03:14:20.034Z,2.60
2018-04-29T03:14:54.049Z,2.95
2018-04-29T03:15:27.335Z,2.70
2018-04-29T03:16:00.589Z,2.78
2018-04-29T03:16:33.860Z,3.00
2018-04-29T03:17:07.129Z,2.80
2018-04-29T03:17:40.397Z,2.37
2018-04-29T03:18:13.664Z,2.33
2018-04-29T03:18:46.932Z,2.85
2018-04-29T03:19:20.197Z,2.70
2018-04-29T03:19:53.456Z,2.47
2018-04-29T03:20:26.721Z,2.60
2018-04-29T03:21:00.751Z,2.75
2018-04-29T03:21:34.017Z,2.87
2018-04-29T03:22:07.270Z,2.78
2018-04-29T03:22:40.545Z,3.17
2018-04-29T03:23:13.816Z,2.70
2018-04-29T03:23:47.097Z,2.62
2018-04-29T03:24:20.384Z,2.83
2018-04-29T03:24:53.636Z,2.70
2018-04-29T03:25:26.923Z,3.10
2018-04-29T03:26:00.184Z,3.42
2018-04-29T03:26:33.441Z,3.15
2018-04-29T03:27:06.707Z,3.10
2018-04-29T03:27:40.740Z,3.12
2018-04-29T03:28:14.001Z,2.50
2018-04-29T03:28:47.260Z,2.45
2018-04-29T03:29:21.304Z,2.65
2018-04-29T03:29:54.797Z,3.05
2018-04-29T03:30:28.063Z,2.65
2018-04-29T03:31:01.329Z,2.75
2018-04-29T03:31:34.600Z,3.30
2018-04-29T03:32:07.860Z,3.20
2018-04-29T03:32:41.147Z,3.30
2018-04-29T03:33:15.184Z,3.15
2018-04-29T03:33:48.476Z,3.17
2018-04-29T03:34:21.738Z,2.90
2018-04-29T03:34:54.992Z,3.08
2018-04-29T03:35:28.257Z,3.12
2018-04-29T03:36:02.296Z,4.00
2018-04-29T03:36:35.566Z,3.25
2018-04-29T03:37:08.837Z,3.20
2018-04-29T03:37:42.107Z,3.20
2018-04-29T03:38:15.367Z,3.67
2018-04-29T03:38:49.392Z,2.97
2018-04-29T03:39:22.646Z,3.00
2018-04-29T03:39:55.904Z,3.15
2018-04-29T03:40:29.175Z,3.65
2018-04-29T03:41:02.448Z,3.42
2018-04-29T03:41:35.731Z,3.45
2018-04-29T03:42:08.988Z,2.70
2018-04-29T03:42:42.288Z,3.50
2018-04-29T03:43:15.555Z,3.30
2018-04-29T03:43:48.811Z,2.85
2018-04-29T03:44:22.080Z,2.78
2018-04-29T03:44:55.352Z,3.03
2018-04-29T03:45:29.383Z,3.78
2018-04-29T03:46:02.645Z,3.10
2018-04-29T03:46:35.914Z,3.00
2018-04-29T03:47:09.932Z,2.80
2018-04-29T03:47:43.212Z,3.45
2018-04-29T03:48:16.460Z,3.03
2018-04-29T03:48:50.502Z,3.25
2018-04-29T03:49:23.776Z,2.87
2018-04-29T03:49:57.041Z,2.80
2018-04-29T03:50:30.313Z,3.53
2018-04-29T03:51:03.608Z,3.00
2018-04-29T03:51:36.871Z,3.08
2018-04-29T03:52:10.143Z,3.50
2018-04-29T03:52:44.180Z,3.40
2018-04-29T03:53:17.468Z,3.12
2018-04-29T03:53:50.737Z,3.58
2018-04-29T03:54:24.009Z,3.22
2018-04-29T03:54:57.267Z,3.42
2018-04-29T03:55:31.631Z,3.40
2018-04-29T03:56:04.923Z,3.50
2018-04-29T03:56:38.132Z,3.20
2018-04-29T03:57:24.132Z,3.40
2018-04-29T03:58:09.165Z,3.80
2018-04-29T03:58:54.934Z,3.10
2018-04-29T03:59:40.167Z,3.37
2018-04-29T04:00:31.002Z,3.08
2018-04-29T04:01:16.015Z,3.60
2018-04-29T04:02:01.250Z,3.25
2018-04-29T04:02:46.234Z,2.83
2018-04-29T04:03:31.336Z,3.22
2018-04-29T04:04:04.601Z,3.58
2018-04-29T04:04:37.878Z,3.42
2018-04-29T04:05:11.910Z,3.42
2018-04-29T04:05:45.180Z,3.30
2018-04-29T04:06:18.441Z,3.35
2018-04-29T04:06:51.705Z,3.37
2018-04-29T04:07:24.966Z,3.60
2018-04-29T04:07:58.252Z,3.30
2018-04-29T04:08:31.526Z,3.87
2018-04-29T04:09:05.580Z,2.97
2018-04-29T04:09:38.927Z,3.83
2018-04-29T04:10:12.128Z,3.40
2018-04-29T04:10:45.393Z,3.60
2018-04-29T04:11:18.660Z,3.20
2018-04-29T04:11:51.924Z,3.47
2018-04-29T04:12:25.208Z,3.55
2018-04-29T04:12:58.464Z,3.42
2018-04-29T04:13:31.749Z,3.45
2018-04-29T04:14:05.788Z,3.60
2018-04-29T04:14:39.824Z,3.30
2018-04-29T04:15:13.084Z,3.55
2018-04-29T04:15:46.349Z,3.30
2018-04-29T04:16:20.491Z,3.70
2018-04-29T04:16:53.716Z,4.30
2018-04-29T04:17:27.748Z,2.90
2018-04-29T04:18:01.016Z,3.30
2018-04-29T04:18:34.292Z,3.33
2018-04-29T04:19:08.328Z,3.97
2018-04-29T04:19:41.593Z,3.45
2018-04-29T04:20:14.860Z,3.83
2018-04-29T04:20:48.132Z,3.25
2018-04-29T04:21:21.393Z,3.58
2018-04-29T04:21:54.661Z,3.35
2018-04-29T04:22:27.918Z,3.35
2018-04-29T04:23:01.180Z,3.00
2018-04-29T04:23:34.487Z,3.17
2018-04-29T04:24:07.965Z,3.55
2018-04-29T04:24:41.231Z,3.37
2018-04-29T04:25:14.497Z,3.25
2018-04-29T04:25:47.755Z,3.60
2018-04-29T04:26:21.032Z,3.60
2018-04-29T04:26:55.066Z,3.10
2018-04-29T04:27:28.326Z,3.22
2018-04-29T04:28:01.593Z,3.35
2018-04-29T04:28:34.889Z,3.10
2018-04-29T04:29:08.166Z,3.05
2018-04-29T04:29:41.429Z,3.70
2018-04-29T04:30:14.692Z,3.20
2018-04-29T04:30:48.725Z,3.10
2018-04-29T04:31:21.989Z,2.97
2018-04-29T04:31:55.241Z,3.40
2018-04-29T04:32:29.276Z,3.55
2018-04-29T04:33:02.530Z,3.12
2018-04-29T04:33:36.566Z,3.35
2018-04-29T04:34:09.908Z,2.92
2018-04-29T04:34:43.105Z,3.20
2018-04-29T04:35:16.361Z,3.22
2018-04-29T04:35:49.626Z,3.20
2018-04-29T04:36:22.889Z,2.83
2018-04-29T04:36:56.671Z,3.40
2018-04-29T04:37:29.935Z,3.10
2018-04-29T04:38:03.202Z,3.37
2018-04-29T04:38:36.471Z,3.20
2018-04-29T04:39:10.496Z,2.97
2018-04-29T04:39:43.760Z,2.58
2018-04-29T04:40:17.120Z,2.97
2018-04-29T04:40:50.303Z,3.10
2018-04-29T04:41:23.589Z,3.20
2018-04-29T04:41:57.619Z,2.80
2018-04-29T04:42:30.869Z,3.28
2018-04-29T04:43:04.142Z,2.72
2018-04-29T04:43:38.184Z,3.60
2018-04-29T04:44:11.440Z,3.30
2018-04-29T04:44:44.702Z,2.90
2018-04-29T04:45:18.725Z,3.40
2018-04-29T04:45:52.006Z,3.20
2018-04-29T04:46:25.286Z,2.65
2018-04-29T04:46:58.543Z,3.25
2018-04-29T04:47:31.807Z,3.33
2018-04-29T04:48:05.832Z,3.72
2018-04-29T04:48:39.106Z,3.25
2018-04-29T04:49:12.380Z,2.92
2018-04-29T04:49:45.653Z,3.50
2018-04-29T04:50:19.680Z,3.25
2018-04-29T04:50:52.937Z,3.37
2018-04-29T04:51:26.960Z,3.08
2018-04-29T04:52:00.215Z,3.55
2018-04-29T04:52:33.480Z,3.22
2018-04-29T04:53:07.513Z,3.12
2018-04-29T04:53:41.582Z,2.80
2018-04-29T04:54:14.828Z,3.40
2018-04-29T04:54:48.869Z,3.08
2018-04-29T04:55:22.892Z,3.25
2018-04-29T04:55:56.188Z,3.12
2018-04-29T04:56:29.452Z,3.10
2018-04-29T04:57:02.745Z,2.92
2018-04-29T04:57:36.537Z,3.70
2018-04-29T04:58:09.881Z,3.95
2018-04-29T04:58:43.122Z,3.22
2018-04-29T04:59:16.402Z,3.15
2018-04-29T04:59:49.672Z,3.60
2018-04-29T05:00:23.715Z,3.87
2018-04-29T05:00:57.752Z,3.47
2018-04-29T05:01:31.035Z,4.10
2018-04-29T05:02:04.305Z,3.10
2018-04-29T05:02:37.579Z,3.28
2018-04-29T05:03:10.850Z,3.80
2018-04-29T05:03:44.124Z,3.92
2018-04-29T05:04:17.392Z,3.58
2018-04-29T05:04:51.421Z,3.80
2018-04-29T05:05:24.694Z,3.20
2018-04-29T05:05:57.959Z,3.78
2018-04-29T05:06:31.980Z,3.37
2018-04-29T05:07:05.248Z,3.47
2018-04-29T05:07:38.506Z,3.60
2018-04-29T05:08:12.540Z,4.05
2018-04-29T05:08:45.822Z,4.05
2018-04-29T05:09:19.091Z,3.70
2018-04-29T05:09:52.354Z,3.40
2018-04-29T05:10:25.600Z,3.55
2018-04-29T05:10:58.875Z,3.30
2018-04-29T05:11:32.203Z,3.20
2018-04-29T05:12:05.468Z,3.35
2018-04-29T05:12:38.732Z,2.80
2018-04-29T05:13:12.773Z,2.78
2018-04-29T05:13:46.156Z,3.08
2018-04-29T05:14:19.348Z,3.00
2018-04-29T05:14:52.617Z,2.87
2018-04-29T05:15:25.944Z,3.30
2018-04-29T05:15:59.162Z,3.37
2018-04-29T05:16:32.438Z,2.97
2018-04-29T05:17:05.704Z,3.30
2018-04-29T05:17:39.753Z,3.25
2018-04-29T05:18:13.005Z,2.80
2018-04-29T05:18:46.345Z,3.20
2018-04-29T05:19:19.620Z,3.00
2018-04-29T05:19:52.889Z,3.37
2018-04-29T05:20:26.154Z,2.90
2018-04-29T05:20:59.420Z,3.25
2018-04-29T05:21:33.024Z,3.22
2018-04-29T05:22:07.113Z,3.78
2018-04-29T05:22:40.315Z,3.28
2018-04-29T05:23:13.572Z,3.40
2018-04-29T05:23:46.828Z,3.50
2018-04-29T05:24:20.129Z,3.35
2018-04-29T05:24:53.393Z,3.10
2018-04-29T05:25:26.647Z,3.10
2018-04-29T05:25:59.909Z,3.55
2018-04-29T05:26:33.173Z,3.45
2018-04-29T05:27:06.431Z,2.97
2018-04-29T05:27:39.795Z,3.10
2018-04-29T05:28:12.973Z,2.87
2018-04-29T05:28:46.245Z,2.92
2018-04-29T05:29:19.515Z,2.87
2018-04-29T05:29:52.789Z,3.72
2018-04-29T05:30:26.836Z,3.10
2018-04-29T05:31:00.125Z,2.83
2018-04-29T05:31:33.365Z,3.30
2018-04-29T05:32:06.633Z,3.28
2018-04-29T05:32:39.895Z,2.87
2018-04-29T05:33:13.923Z,2.92
2018-04-29T05:33:47.204Z,3.15
2018-04-29T05:34:20.468Z,3.12
2018-04-29T05:34:53.729Z,3.25
2018-04-29T05:35:27.079Z,3.28
2018-04-29T05:36:00.268Z,3.55
2018-04-29T05:36:33.535Z,2.45
2018-04-29T05:37:06.801Z,3.17
2018-04-29T05:37:40.845Z,3.65
2018-04-29T05:38:14.116Z,2.80
2018-04-29T05:38:47.385Z,3.12
2018-04-29T05:39:21.790Z,3.25
2018-04-29T05:39:55.072Z,2.95
2018-04-29T05:40:28.352Z,3.10
2018-04-29T05:41:01.694Z,2.80
2018-04-29T05:41:34.884Z,3.15
2018-04-29T05:42:08.166Z,2.83
2018-04-29T05:42:41.437Z,3.25
2018-04-29T05:43:14.700Z,3.17
2018-04-29T05:43:47.980Z,3.22
2018-04-29T05:44:21.249Z,3.28
2018-04-29T05:44:54.513Z,3.10
2018-04-29T05:45:28.544Z,3.33
2018-04-29T05:46:02.570Z,3.00
2018-04-29T05:46:35.846Z,3.00
2018-04-29T05:47:09.125Z,3.20
2018-04-29T05:47:42.397Z,3.95
2018-04-29T05:48:15.664Z,3.15
2018-04-29T05:48:48.945Z,3.60
2018-04-29T05:49:22.232Z,3.70
2018-04-29T05:49:55.589Z,3.37
2018-04-29T05:50:28.813Z,3.42
2018-04-29T05:51:02.097Z,3.53
2018-04-29T05:51:35.361Z,3.72
2018-04-29T05:52:08.622Z,3.58
2018-04-29T05:52:41.892Z,3.70
2018-04-29T05:53:15.921Z,3.60
2018-04-29T05:53:49.189Z,3.50
2018-04-29T05:54:22.464Z,3.47
2018-04-29T05:54:55.758Z,4.10
2018-04-29T05:55:29.009Z,3.65
2018-04-29T05:56:02.279Z,3.60
2018-04-29T05:56:36.296Z,3.80
2018-04-29T05:57:09.562Z,3.67
2018-04-29T05:57:42.840Z,3.83
2018-04-29T05:58:16.867Z,4.10
2018-04-29T05:58:50.495Z,3.55
2018-04-29T05:59:23.757Z,3.90
2018-04-29T05:59:57.030Z,3.42
2018-04-29T06:00:30.423Z,3.85
2018-04-29T06:01:03.676Z,3.92
2018-04-29T06:01:36.936Z,3.58
2018-04-29T06:02:10.196Z,3.87
2018-04-29T06:02:44.229Z,4.28
2018-04-29T06:03:17.480Z,3.22
2018-04-29T06:03:51.535Z,3.95
2018-04-29T06:04:25.591Z,4.15
2018-04-29T06:04:58.906Z,3.70
2018-04-29T06:05:32.165Z,4.10
2018-04-29T06:06:05.440Z,4.28
2018-04-29T06:06:38.769Z,4.03
2018-04-29T06:07:11.981Z,3.78
2018-04-29T06:07:45.257Z,3.85
2018-04-29T06:08:19.285Z,3.78
2018-04-29T06:08:52.558Z,3.65
2018-04-29T06:09:25.821Z,3.92
2018-04-29T06:09:59.870Z,3.70
2018-04-29T06:10:33.160Z,4.35
2018-04-29T06:11:06.429Z,4.28
2018-04-29T06:11:39.688Z,4.55
2018-04-29T06:12:12.950Z,4.07
2018-04-29T06:12:46.215Z,4.05
2018-04-29T06:13:20.281Z,4.50
2018-04-29T06:13:53.553Z,4.37
2018-04-29T06:14:26.835Z,4.20
2018-04-29T06:15:00.121Z,4.40
2018-04-29T06:15:33.400Z,4.47
2018-04-29T06:16:06.652Z,4.25
2018-04-29T06:16:39.921Z,3.97
2018-04-29T06:17:13.185Z,3.58
2018-04-29T06:17:46.456Z,4.32
2018-04-29T06:18:19.717Z,4.03
2018-04-29T06:18:52.980Z,3.45
2018-04-29T06:19:26.236Z,4.10
2018-04-29T06:19:59.511Z,3.97
2018-04-29T06:20:32.797Z,5.05
2018-04-29T06:21:06.537Z,4.22
2018-04-29T06:21:39.809Z,4.50
2018-04-29T06:22:13.086Z,3.78
2018-04-29T06:22:46.342Z,3.50
2018-04-29T06:23:19.624Z,3.40
2018-04-29T06:23:52.881Z,4.20
2018-04-29T06:24:26.142Z,3.72
2018-04-29T06:24:59.424Z,4.53
2018-04-29T06:25:32.694Z,3.03
2018-04-29T06:26:06.071Z,4.03
2018-04-29T06:26:39.268Z,3.42
2018-04-29T06:27:12.543Z,4.07
2018-04-29T06:27:45.825Z,4.22
2018-04-29T06:28:19.092Z,4.28
2018-04-29T06:28:53.141Z,3.70
2018-04-29T06:29:27.156Z,4.10
2018-04-29T06:30:01.178Z,3.92
2018-04-29T06:30:35.240Z,4.45
2018-04-29T06:31:08.525Z,3.80
2018-04-29T06:31:41.808Z,3.95
2018-04-29T06:32:15.081Z,4.57
2018-04-29T06:32:48.344Z,4.10
2018-04-29T06:33:21.610Z,3.65
2018-04-29T06:33:54.872Z,3.83
2018-04-29T06:34:28.140Z,4.00
2018-04-29T06:35:01.409Z,4.10
2018-04-29T06:35:35.472Z,4.05
2018-04-29T06:36:08.741Z,4.15
2018-04-29T06:36:42.009Z,4.25
2018-04-29T06:37:15.277Z,3.92
2018-04-29T06:37:48.528Z,3.70
2018-04-29T06:38:22.564Z,4.15
2018-04-29T06:38:55.891Z,4.05
2018-04-29T06:39:29.104Z,4.07
2018-04-29T06:40:02.366Z,4.00
2018-04-29T06:40:35.636Z,4.18
2018-04-29T06:41:09.671Z,4.07
2018-04-29T06:41:42.929Z,4.47
2018-04-29T06:42:16.967Z,4.00
2018-04-29T06:42:50.257Z,4.28
2018-04-29T06:43:23.528Z,3.58
2018-04-29T06:43:56.783Z,3.70
2018-04-29T06:44:30.076Z,4.60
2018-04-29T06:45:03.332Z,3.90
2018-04-29T06:45:36.642Z,3.87
2018-04-29T06:46:09.912Z,3.80
2018-04-29T06:46:43.176Z,2.90
2018-04-29T06:47:16.440Z,3.40
2018-04-29T06:47:50.473Z,3.78
2018-04-29T06:48:23.739Z,2.95
2018-04-29T06:48:57.009Z,3.80
2018-04-29T06:49:31.047Z,4.40
2018-04-29T06:50:04.322Z,4.20
2018-04-29T06:50:37.616Z,4.12
2018-04-29T06:51:10.889Z,4.05
2018-04-29T06:51:44.156Z,3.25
2018-04-29T06:52:17.636Z,3.67
2018-04-29T06:52:50.917Z,3.37
2018-04-29T06:53:24.219Z,3.67
2018-04-29T06:53:57.439Z,3.30
2018-04-29T06:54:31.478Z,3.55
2018-04-29T06:55:04.764Z,3.33
2018-04-29T06:55:38.041Z,3.78
2018-04-29T06:56:11.324Z,4.10
2018-04-29T06:56:44.578Z,3.30
2018-04-29T06:57:18.602Z,3.90
2018-04-29T06:57:52.645Z,3.53
2018-04-29T06:58:25.912Z,3.70
2018-04-29T06:58:59.181Z,3.50
2018-04-29T06:59:32.464Z,3.17
2018-04-29T07:00:05.736Z,3.65
2018-04-29T07:00:39.034Z,3.92
2018-04-29T07:01:12.294Z,3.80
2018-04-29T07:01:45.577Z,3.90
2018-04-29T07:02:19.616Z,4.40
2018-04-29T07:02:53.659Z,3.90
2018-04-29T07:03:27.166Z,4.57
2018-04-29T07:04:01.457Z,4.20
2018-04-29T07:04:34.720Z,4.12
2018-04-29T07:05:08.013Z,3.67
2018-04-29T07:05:41.290Z,4.25
2018-04-29T07:06:14.561Z,3.95
2018-04-29T07:06:47.817Z,3.80
2018-04-29T07:07:21.090Z,4.05
2018-04-29T07:07:55.120Z,3.85
2018-04-29T07:08:28.377Z,3.75
2018-04-29T07:09:01.657Z,3.62
2018-04-29T07:09:34.913Z,3.83
2018-04-29T07:10:08.949Z,3.45
2018-04-29T07:10:42.257Z,3.72
2018-04-29T07:11:15.530Z,3.78
2018-04-29T07:11:49.237Z,3.97
2018-04-29T07:12:22.495Z,3.37
2018-04-29T07:12:55.768Z,3.97
2018-04-29T07:13:29.045Z,3.12
2018-04-29T07:14:02.347Z,3.90
2018-04-29T07:14:35.571Z,3.60
2018-04-29T07:15:08.845Z,3.55
2018-04-29T07:15:42.900Z,3.90
2018-04-29T07:16:16.161Z,3.50
2018-04-29T07:16:49.426Z,3.70
2018-04-29T07:17:22.692Z,3.65
2018-04-29T07:17:56.751Z,4.18
2018-04-29T07:18:30.780Z,3.30
2018-04-29T07:19:04.825Z,3.92
2018-04-29T07:19:38.088Z,3.80
2018-04-29T07:20:11.345Z,3.37
2018-04-29T07:20:45.375Z,4.10
2018-04-29T07:21:18.688Z,3.62
2018-04-29T07:21:51.937Z,3.72
2018-04-29T07:22:25.204Z,3.55
2018-04-29T07:22:58.476Z,3.85
2018-04-29T07:23:31.838Z,3.85
2018-04-29T07:24:05.095Z,3.28
2018-04-29T07:24:38.386Z,3.25
2018-04-29T07:25:11.649Z,3.50
2018-04-29T07:25:44.917Z,3.10
2018-04-29T07:26:18.314Z,3.87
2018-04-29T07:26:52.334Z,3.37